RYR3LC EGSS-EIDW
Flight info
| Callsign | RYR3LC |
|---|---|
| Flight time | N/A |
| Altitude | 24000 |
| Route | NUGBO1S NUGBO M183 SILVA/N0450F340 P86 DIDZA N14 OKSAW DCT BIBPE DCT OKTAD DCT MEDOG DCT KRAGY DCT PEMOB M17 VATRY VATRY4L |
| Aircraft | B738/M-SDE2E3FGHIRWXY/LB1 |
Departure
| Time | 2026-05-06 22:19 |
|---|---|
| Airport | London Stansted Airport (EGSS) |
Arrival
| Time | N/A |
|---|---|
| Airport | Dublin Airport (EIDW) |
| Time | Latitude | Longitude | Altitude | Speed | Heading |
|---|---|---|---|---|---|
| 2026-05-06 21:56 | 51.88936 | 0.25568 | 338 ft | 0 kts | 223° |
| 2026-05-06 22:11 | 51.88952 | 0.25596 | 333 ft | 4 kts | 236° |
| 2026-05-06 22:11 | 51.88963 | 0.25634 | 335 ft | 4 kts | 269° |
| 2026-05-06 22:11 | 51.88958 | 0.25665 | 335 ft | 1 kts | 313° |
| 2026-05-06 22:13 | 51.88984 | 0.25617 | 337 ft | 10 kts | 311° |
| 2026-05-06 22:13 | 51.89030 | 0.25536 | 335 ft | 14 kts | 312° |
| 2026-05-06 22:14 | 51.89102 | 0.25410 | 339 ft | 17 kts | 313° |
| 2026-05-06 22:14 | 51.89143 | 0.25340 | 341 ft | 2 kts | 313° |
| 2026-05-06 22:14 | 51.89177 | 0.25281 | 349 ft | 14 kts | 313° |
| 2026-05-06 22:14 | 51.89230 | 0.25088 | 352 ft | 26 kts | 243° |
| 2026-05-06 22:15 | 51.89070 | 0.24821 | 348 ft | 40 kts | 223° |
| 2026-05-06 22:15 | 51.88882 | 0.24539 | 348 ft | 33 kts | 223° |
| 2026-05-06 22:15 | 51.88744 | 0.24333 | 347 ft | 26 kts | 223° |
| 2026-05-06 22:15 | 51.88574 | 0.24077 | 340 ft | 39 kts | 224° |
| 2026-05-06 22:16 | 51.88390 | 0.23801 | 338 ft | 41 kts | 223° |
| 2026-05-06 22:16 | 51.88215 | 0.23540 | 337 ft | 32 kts | 223° |
| 2026-05-06 22:16 | 51.88016 | 0.23241 | 336 ft | 45 kts | 223° |
| 2026-05-06 22:16 | 51.87849 | 0.22989 | 335 ft | 32 kts | 221° |
| 2026-05-06 22:17 | 51.87656 | 0.22702 | 335 ft | 38 kts | 223° |
| 2026-05-06 22:17 | 51.87489 | 0.22449 | 334 ft | 33 kts | 223° |
| 2026-05-06 22:17 | 51.87402 | 0.22294 | 329 ft | 16 kts | 252° |
| 2026-05-06 22:17 | 51.87439 | 0.22138 | 330 ft | 12 kts | 315° |
| 2026-05-06 22:18 | 51.87501 | 0.22035 | 327 ft | 10 kts | 319° |
| 2026-05-06 22:18 | 51.87559 | 0.22068 | 328 ft | 0 kts | 42° |
| 2026-05-06 22:18 | 51.87577 | 0.22095 | 327 ft | 10 kts | 43° |
| 2026-05-06 22:19 | 51.87658 | 0.22218 | 329 ft | 25 kts | 44° |
| 2026-05-06 22:19 | 51.88015 | 0.22751 | 334 ft | 113 kts | 44° |
| 2026-05-06 22:19 | 51.88760 | 0.23859 | 499 ft | 173 kts | 43° |
| 2026-05-06 22:19 | 51.89687 | 0.25329 | 1301 ft | 193 kts | 43° |
| 2026-05-06 22:20 | 51.90700 | 0.26858 | 2274 ft | 193 kts | 41° |
| 2026-05-06 22:20 | 51.91730 | 0.28400 | 2685 ft | 215 kts | 41° |
| 2026-05-06 22:20 | 51.93027 | 0.29659 | 3290 ft | 223 kts | 15° |
| 2026-05-06 22:20 | 51.94578 | 0.29689 | 4007 ft | 228 kts | 347° |
| 2026-05-06 22:21 | 51.95964 | 0.28482 | 4685 ft | 231 kts | 319° |
| 2026-05-06 22:21 | 51.96793 | 0.26253 | 5004 ft | 238 kts | 290° |
| 2026-05-06 22:21 | 51.97139 | 0.23599 | 5007 ft | 241 kts | 283° |
| 2026-05-06 22:21 | 51.97415 | 0.20935 | 4999 ft | 238 kts | 283° |
| 2026-05-06 22:22 | 51.97681 | 0.18296 | 5006 ft | 238 kts | 283° |
| 2026-05-06 22:22 | 51.97960 | 0.15630 | 5007 ft | 241 kts | 283° |
| 2026-05-06 22:22 | 51.98247 | 0.12940 | 5008 ft | 243 kts | 283° |
| 2026-05-06 22:22 | 51.98540 | 0.10231 | 5179 ft | 245 kts | 283° |
| 2026-05-06 22:23 | 51.98838 | 0.07493 | 5810 ft | 254 kts | 282° |
| 2026-05-06 22:23 | 51.98857 | 0.04570 | 6475 ft | 267 kts | 261° |
| 2026-05-06 22:23 | 51.98440 | 0.01605 | 7419 ft | 271 kts | 259° |
| 2026-05-06 22:23 | 51.98050 | -0.01257 | 8344 ft | 273 kts | 261° |
| 2026-05-06 22:24 | 51.97651 | -0.04308 | 9221 ft | 280 kts | 260° |
| 2026-05-06 22:24 | 51.97249 | -0.07419 | 10145 ft | 284 kts | 261° |
| 2026-05-06 22:24 | 51.96833 | -0.10638 | 10647 ft | 304 kts | 260° |
| 2026-05-06 22:24 | 51.96379 | -0.14149 | 10861 ft | 331 kts | 260° |
| 2026-05-06 22:25 | 51.95890 | -0.17911 | 11243 ft | 349 kts | 259° |
| 2026-05-06 22:25 | 51.95381 | -0.21789 | 12099 ft | 352 kts | 259° |
| 2026-05-06 22:25 | 51.94868 | -0.25684 | 12993 ft | 355 kts | 259° |
| 2026-05-06 22:25 | 51.94525 | -0.28287 | 13577 ft | 357 kts | 259° |
| 2026-05-06 22:26 | 51.94003 | -0.32243 | 14294 ft | 362 kts | 259° |
| 2026-05-06 22:26 | 51.93301 | -0.37562 | 15295 ft | 367 kts | 258° |
| 2026-05-06 22:26 | 51.92764 | -0.41613 | 16054 ft | 370 kts | 258° |
| 2026-05-06 22:26 | 51.92221 | -0.45699 | 16821 ft | 372 kts | 258° |
| 2026-05-06 22:27 | 51.91672 | -0.49826 | 17488 ft | 378 kts | 258° |
| 2026-05-06 22:27 | 51.91113 | -0.54009 | 18163 ft | 383 kts | 258° |
| 2026-05-06 22:27 | 51.90547 | -0.58233 | 18859 ft | 384 kts | 258° |
| 2026-05-06 22:27 | 51.90163 | -0.61095 | 19293 ft | 386 kts | 258° |
| 2026-05-06 22:28 | 51.89589 | -0.65365 | 19903 ft | 390 kts | 257° |
| 2026-05-06 22:28 | 51.89008 | -0.69673 | 20476 ft | 394 kts | 257° |
| 2026-05-06 22:28 | 51.88427 | -0.73966 | 21056 ft | 397 kts | 257° |
| 2026-05-06 22:28 | 51.87833 | -0.78344 | 21684 ft | 399 kts | 257° |
| 2026-05-06 22:29 | 51.87227 | -0.82802 | 22286 ft | 402 kts | 257° |
| 2026-05-06 22:29 | 51.86629 | -0.87188 | 22831 ft | 406 kts | 257° |
| 2026-05-06 22:29 | 51.86015 | -0.91669 | 23379 ft | 409 kts | 257° |
| 2026-05-06 22:29 | 51.85313 | -0.96145 | 23850 ft | 412 kts | 251° |
| 2026-05-06 22:30 | 51.84168 | -1.00244 | 24323 ft | 415 kts | 241° |
| 2026-05-06 22:30 | 51.82572 | -1.04151 | 24817 ft | 417 kts | 232° |
| 2026-05-06 22:30 | 51.80602 | -1.07593 | 25309 ft | 419 kts | 226° |
| 2026-05-06 22:30 | 51.78525 | -1.10910 | 25744 ft | 421 kts | 225° |
| 2026-05-06 22:31 | 51.76435 | -1.14230 | 26163 ft | 423 kts | 225° |
| 2026-05-06 22:31 | 51.74339 | -1.17583 | 26579 ft | 426 kts | 225° |
| 2026-05-06 22:31 | 51.72240 | -1.20971 | 27013 ft | 428 kts | 225° |
| 2026-05-06 22:31 | 51.70140 | -1.24381 | 27429 ft | 430 kts | 225° |
| 2026-05-06 22:32 | 51.68033 | -1.27804 | 27847 ft | 432 kts | 225° |
| 2026-05-06 22:32 | 51.65919 | -1.31269 | 28215 ft | 434 kts | 228° |
| 2026-05-06 22:32 | 51.64262 | -1.35322 | 28534 ft | 437 kts | 246° |
| 2026-05-06 22:32 | 51.63444 | -1.40035 | 28923 ft | 441 kts | 261° |
| 2026-05-06 22:33 | 51.63407 | -1.44981 | 29357 ft | 445 kts | 274° |
| 2026-05-06 22:33 | 51.64129 | -1.49809 | 29949 ft | 446 kts | 290° |
| 2026-05-06 22:33 | 51.65529 | -1.54262 | 30480 ft | 445 kts | 296° |
| 2026-05-06 22:33 | 51.67054 | -1.58611 | 30827 ft | 446 kts | 297° |
| 2026-05-06 22:34 | 51.68558 | -1.62994 | 31103 ft | 448 kts | 296° |
| 2026-05-06 22:34 | 51.69873 | -1.67534 | 31464 ft | 446 kts | 288° |
| 2026-05-06 22:34 | 51.70724 | -1.72320 | 31884 ft | 443 kts | 279° |
| 2026-05-06 22:34 | 51.71115 | -1.77222 | 32271 ft | 441 kts | 274° |
| 2026-05-06 22:35 | 51.71414 | -1.82147 | 32606 ft | 442 kts | 275° |
| 2026-05-06 22:35 | 51.71795 | -1.87063 | 32944 ft | 443 kts | 279° |
| 2026-05-06 22:35 | 51.72452 | -1.91909 | 33304 ft | 443 kts | 282° |
| 2026-05-06 22:35 | 51.73202 | -1.96743 | 33632 ft | 444 kts | 284° |
| 2026-05-06 22:36 | 51.73944 | -2.01402 | 33936 ft | 441 kts | 284° |
| 2026-05-06 22:36 | 51.74682 | -2.06098 | 33989 ft | 438 kts | 284° |
| 2026-05-06 22:36 | 51.76145 | -2.15740 | 34009 ft | 441 kts | 284° |
| 2026-05-06 22:37 | 51.77563 | -2.25372 | 34014 ft | 446 kts | 283° |
| 2026-05-06 22:37 | 51.78991 | -2.35174 | 34012 ft | 449 kts | 284° |
| 2026-05-06 22:38 | 51.80399 | -2.44882 | 34001 ft | 440 kts | 283° |
| 2026-05-06 22:38 | 51.81785 | -2.54489 | 34011 ft | 439 kts | 283° |
| 2026-05-06 22:39 | 51.83116 | -2.64137 | 34009 ft | 440 kts | 282° |
| 2026-05-06 22:39 | 51.84408 | -2.73807 | 34013 ft | 440 kts | 282° |
| 2026-05-06 22:40 | 51.85700 | -2.83502 | 34043 ft | 441 kts | 282° |
| 2026-05-06 22:40 | 51.86990 | -2.93209 | 34048 ft | 442 kts | 282° |
| 2026-05-06 22:41 | 51.88893 | -3.07616 | 34036 ft | 441 kts | 282° |
| 2026-05-06 22:42 | 51.90163 | -3.17317 | 34028 ft | 440 kts | 281° |
| 2026-05-06 22:42 | 51.91421 | -3.26999 | 34026 ft | 439 kts | 281° |
| 2026-05-06 22:43 | 51.92665 | -3.36635 | 34023 ft | 436 kts | 281° |